createdAt,value
2019-05-13T00:01:43.512Z,5.70
2019-05-13T00:04:14.083Z,5.60
2019-05-13T00:06:53.240Z,5.70
2019-05-13T00:09:14.202Z,5.90
2019-05-13T00:11:43.788Z,5.70
2019-05-13T00:14:13.391Z,6.00
2019-05-13T00:16:44.708Z,5.90
2019-05-13T00:19:14.222Z,6.00
2019-05-13T00:21:44.520Z,6.10
2019-05-13T00:24:13.937Z,5.90
2019-05-13T00:26:44.413Z,5.80
2019-05-13T00:29:14.181Z,5.60
2019-05-13T00:31:43.852Z,5.50
2019-05-13T00:34:14.359Z,5.30
2019-05-13T00:36:44.524Z,5.40
2019-05-13T00:39:15.318Z,5.40
2019-05-13T00:41:44.372Z,5.50
2019-05-13T00:44:14.255Z,5.50
2019-05-13T00:46:44.098Z,5.50
2019-05-13T00:49:13.495Z,5.60
2019-05-13T00:51:44.395Z,5.50
2019-05-13T00:54:13.604Z,5.40
2019-05-13T00:56:43.624Z,5.40
2019-05-13T00:59:14.143Z,5.30
2019-05-13T01:01:44.077Z,5.20
2019-05-13T01:04:14.365Z,5.00
2019-05-13T01:06:43.722Z,5.00
2019-05-13T01:09:14.532Z,4.90
2019-05-13T01:11:43.838Z,5.10
2019-05-13T01:14:14.300Z,5.20
2019-05-13T01:16:44.336Z,5.30
2019-05-13T01:19:14.362Z,5.30
2019-05-13T01:21:43.965Z,5.30
2019-05-13T01:24:14.404Z,5.10
2019-05-13T01:26:43.971Z,5.20
2019-05-13T01:29:13.488Z,5.10
2019-05-13T01:31:43.406Z,5.00
2019-05-13T01:34:14.351Z,5.00
2019-05-13T01:36:44.722Z,5.00
2019-05-13T01:39:14.056Z,5.00
2019-05-13T01:41:43.905Z,5.20
2019-05-13T01:44:14.006Z,5.00
2019-05-13T01:46:43.831Z,4.90
2019-05-13T01:49:13.603Z,4.80
2019-05-13T01:51:44.001Z,4.80
2019-05-13T01:54:14.245Z,4.70
2019-05-13T01:56:44.123Z,4.70
2019-05-13T01:59:15.151Z,4.60
2019-05-13T02:01:44.344Z,4.70
2019-05-13T02:04:14.307Z,4.80
2019-05-13T02:06:44.300Z,4.80
2019-05-13T02:09:14.161Z,4.70
2019-05-13T02:11:46.504Z,4.60
2019-05-13T02:14:14.670Z,4.50
2019-05-13T02:16:44.521Z,4.70
2019-05-13T02:19:14.287Z,4.50
2019-05-13T02:21:43.905Z,4.50
2019-05-13T02:24:14.487Z,4.50
2019-05-13T02:26:43.898Z,4.40
2019-05-13T02:29:14.306Z,4.40
2019-05-13T02:31:51.098Z,4.60
2019-05-13T02:34:14.128Z,4.50
2019-05-13T02:36:44.033Z,4.50
2019-05-13T02:39:13.266Z,4.50
2019-05-13T02:41:43.131Z,4.60
2019-05-13T02:44:12.515Z,4.70
2019-05-13T02:46:44.367Z,4.70
2019-05-13T02:49:12.366Z,4.70
2019-05-13T02:51:42.857Z,4.70
2019-05-13T02:54:12.645Z,4.90
2019-05-13T02:56:42.433Z,4.70
2019-05-13T02:59:13.290Z,4.70
2019-05-13T03:01:43.214Z,4.60
2019-05-13T03:04:13.185Z,4.70
2019-05-13T03:06:43.573Z,4.50
2019-05-13T03:09:13.064Z,4.30
2019-05-13T03:11:42.686Z,4.50
2019-05-13T03:14:12.833Z,4.30
2019-05-13T03:16:52.551Z,4.30
2019-05-13T03:19:22.466Z,4.10
2019-05-13T03:21:52.656Z,4.10
2019-05-13T03:24:22.754Z,4.00
2019-05-13T03:26:53.215Z,4.00
2019-05-13T03:29:22.512Z,3.90
2019-05-13T03:31:55.508Z,3.80
2019-05-13T03:34:26.710Z,3.90
2019-05-13T03:36:56.913Z,4.10
2019-05-13T03:39:24.403Z,4.10
2019-05-13T03:41:56.085Z,4.10
2019-05-13T03:44:27.559Z,4.20
2019-05-13T03:46:57.982Z,4.20
2019-05-13T03:49:32.306Z,4.30
2019-05-13T03:52:02.988Z,4.20
2019-05-13T03:54:32.740Z,4.00
2019-05-13T03:57:03.601Z,3.80
2019-05-13T03:59:33.520Z,4.00
2019-05-13T04:02:02.891Z,3.90
2019-05-13T04:04:32.770Z,3.90
2019-05-13T04:07:02.866Z,3.80
2019-05-13T04:09:36.328Z,3.90
2019-05-13T04:12:03.565Z,3.90
2019-05-13T04:14:33.699Z,3.90
2019-05-13T04:17:03.293Z,3.90
2019-05-13T04:19:33.873Z,3.80
2019-05-13T04:22:03.373Z,3.80
2019-05-13T04:24:33.542Z,3.80
2019-05-13T04:27:03.270Z,3.80
2019-05-13T04:29:33.318Z,3.90
2019-05-13T04:32:03.000Z,3.90
2019-05-13T04:34:33.752Z,3.90
2019-05-13T04:37:03.176Z,3.90
2019-05-13T04:39:44.763Z,4.20
2019-05-13T04:42:02.976Z,4.10
2019-05-13T04:44:32.579Z,4.30
2019-05-13T04:47:03.677Z,4.50
2019-05-13T04:49:32.927Z,4.40
2019-05-13T04:52:03.591Z,4.40
2019-05-13T04:54:33.572Z,4.40
2019-05-13T04:57:03.291Z,4.40
2019-05-13T04:59:34.090Z,4.40
2019-05-13T05:02:49.731Z,4.40
2019-05-13T05:05:33.063Z,4.40
2019-05-13T05:08:18.656Z,4.50
2019-05-13T05:11:13.017Z,4.50
2019-05-13T05:14:37.177Z,4.70
2019-05-13T05:17:42.967Z,4.80
2019-05-13T05:20:24.766Z,5.00
2019-05-13T05:23:31.993Z,5.20
2019-05-13T05:26:37.506Z,5.30
2019-05-13T05:29:32.109Z,5.40
2019-05-13T05:32:46.149Z,5.60
2019-05-13T05:35:56.821Z,5.70
2019-05-13T05:38:56.145Z,6.00
2019-05-13T05:41:28.394Z,6.10
2019-05-13T05:43:58.705Z,6.10
2019-05-13T05:46:28.988Z,6.20
2019-05-13T05:49:02.354Z,6.20
2019-05-13T05:51:32.911Z,6.30
2019-05-13T05:54:04.133Z,6.40
2019-05-13T05:56:33.830Z,6.50
2019-05-13T05:59:03.877Z,6.60
2019-05-13T06:01:37.055Z,6.60
2019-05-13T06:04:03.828Z,6.70
2019-05-13T06:06:33.110Z,6.80
2019-05-13T06:09:02.610Z,7.00
2019-05-13T06:11:33.345Z,7.00
2019-05-13T06:14:02.548Z,7.10
2019-05-13T06:16:32.151Z,7.20
2019-05-13T06:19:01.604Z,7.30
2019-05-13T06:21:32.127Z,7.30
2019-05-13T06:24:02.737Z,7.50
2019-05-13T06:26:31.869Z,7.60
2019-05-13T06:29:02.723Z,7.70
2019-05-13T06:31:32.269Z,7.90
2019-05-13T06:34:02.193Z,8.00
2019-05-13T06:36:31.811Z,8.10
2019-05-13T06:39:02.246Z,8.30
2019-05-13T06:41:32.339Z,8.40
2019-05-13T06:44:02.569Z,8.60
2019-05-13T06:46:32.393Z,8.80
2019-05-13T06:49:02.881Z,9.20
2019-05-13T06:51:32.266Z,9.60
2019-05-13T06:54:02.355Z,10.00
2019-05-13T06:56:32.380Z,10.30
2019-05-13T06:59:01.656Z,10.60
2019-05-13T07:01:32.321Z,11.00
2019-05-13T07:04:02.340Z,11.40
2019-05-13T07:06:32.299Z,11.60
2019-05-13T07:09:01.610Z,11.80
2019-05-13T07:11:31.438Z,11.90
2019-05-13T07:14:02.496Z,12.00
2019-05-13T07:16:31.811Z,12.10
2019-05-13T07:19:02.604Z,12.10
2019-05-13T07:21:32.275Z,12.20
2019-05-13T07:24:02.416Z,12.40
2019-05-13T07:26:31.688Z,12.60
2019-05-13T07:29:03.300Z,12.80
2019-05-13T07:31:32.386Z,12.90
2019-05-13T07:34:02.293Z,13.00
2019-05-13T07:36:31.791Z,13.30
2019-05-13T07:39:01.995Z,13.50
2019-05-13T07:41:38.273Z,13.90
2019-05-13T07:44:02.488Z,14.20
2019-05-13T07:46:32.222Z,14.50
2019-05-13T07:49:02.142Z,15.00
2019-05-13T07:51:31.935Z,15.40
2019-05-13T07:54:02.223Z,15.80
2019-05-13T07:56:32.435Z,16.10
2019-05-13T07:59:02.238Z,16.10
2019-05-13T08:01:32.752Z,16.50
2019-05-13T08:04:02.422Z,17.00
2019-05-13T08:06:32.320Z,17.20
2019-05-13T08:09:01.881Z,17.60
2019-05-13T08:11:36.810Z,18.10
2019-05-13T08:14:01.945Z,18.30
2019-05-13T08:16:32.315Z,18.40
2019-05-13T08:19:01.971Z,18.50
2019-05-13T08:21:32.232Z,18.90
2019-05-13T08:24:02.706Z,18.90
2019-05-13T08:26:32.388Z,18.80
2019-05-13T08:29:05.588Z,19.00
2019-05-13T08:31:32.391Z,19.40
2019-05-13T08:34:02.429Z,19.40
2019-05-13T08:36:32.683Z,19.30
2019-05-13T08:39:02.622Z,19.50
2019-05-13T08:41:32.370Z,19.70
2019-05-13T08:44:01.881Z,20.00
2019-05-13T08:46:32.316Z,20.50
2019-05-13T08:49:03.844Z,20.90
2019-05-13T08:51:34.770Z,20.90
2019-05-13T08:54:03.189Z,20.90
2019-05-13T08:56:32.720Z,21.10
2019-05-13T08:59:01.656Z,21.40
2019-05-13T09:01:31.903Z,21.70
2019-05-13T09:04:02.385Z,21.60
2019-05-13T09:06:31.805Z,21.50
2019-05-13T09:09:02.463Z,21.50
2019-05-13T09:11:31.561Z,20.90
2019-05-13T09:14:02.238Z,21.10
2019-05-13T09:16:32.038Z,20.20
2019-05-13T09:19:03.772Z,20.00
2019-05-13T09:21:32.007Z,20.40
2019-05-13T09:24:02.189Z,20.90
2019-05-13T09:26:31.742Z,21.20
2019-05-13T09:29:01.570Z,20.80
2019-05-13T09:31:32.406Z,20.80
2019-05-13T09:34:01.665Z,20.50
2019-05-13T09:36:32.421Z,20.60
2019-05-13T09:39:02.216Z,20.50
2019-05-13T09:41:32.257Z,21.00
2019-05-13T09:44:02.237Z,20.80
2019-05-13T09:46:31.968Z,21.00
2019-05-13T09:49:14.804Z,20.70
2019-05-13T09:51:32.500Z,20.50
2019-05-13T09:54:01.707Z,20.30
2019-05-13T09:56:31.913Z,20.90
2019-05-13T10:01:32.155Z,20.00
2019-05-13T10:04:02.961Z,20.10
2019-05-13T10:06:32.862Z,20.20
2019-05-13T10:09:02.453Z,20.50
2019-05-13T10:11:31.522Z,20.00
2019-05-13T10:14:02.086Z,20.40
2019-05-13T10:16:31.662Z,20.90
2019-05-13T10:19:01.653Z,21.60
2019-05-13T10:21:32.608Z,20.60
2019-05-13T10:24:01.866Z,20.10
2019-05-13T10:26:32.068Z,20.40
2019-05-13T10:29:01.637Z,20.40
2019-05-13T10:31:31.385Z,20.00
2019-05-13T10:34:02.344Z,20.20
2019-05-13T10:36:31.459Z,19.50
2019-05-13T10:39:01.341Z,19.60
2019-05-13T10:41:33.322Z,19.40
2019-05-13T10:44:02.991Z,20.00
2019-05-13T10:46:32.135Z,20.00
2019-05-13T10:49:01.930Z,19.40
2019-05-13T10:51:32.667Z,20.00
2019-05-13T10:54:01.708Z,20.90
2019-05-13T10:56:32.699Z,21.10
2019-05-13T10:59:03.011Z,21.00
2019-05-13T11:01:32.789Z,20.60
2019-05-13T11:04:02.657Z,20.30
2019-05-13T11:06:32.591Z,20.50
2019-05-13T11:09:02.275Z,20.50
2019-05-13T11:11:32.967Z,20.90
2019-05-13T11:14:10.180Z,20.90
2019-05-13T11:16:33.213Z,20.60
2019-05-13T11:19:02.980Z,20.50
2019-05-13T11:21:32.266Z,20.70
2019-05-13T11:24:03.388Z,20.90
2019-05-13T11:26:36.107Z,20.60
2019-05-13T11:29:02.964Z,19.90
2019-05-13T11:31:32.882Z,19.30
2019-05-13T11:34:02.202Z,18.60
2019-05-13T11:36:33.283Z,18.20
2019-05-13T11:39:03.010Z,17.90
2019-05-13T11:41:32.692Z,17.90
2019-05-13T11:44:12.893Z,17.90
2019-05-13T11:46:33.312Z,17.70
2019-05-13T11:49:02.761Z,17.60
2019-05-13T11:51:32.426Z,17.60
2019-05-13T11:54:02.412Z,17.60
2019-05-13T11:56:33.663Z,17.60
2019-05-13T11:59:04.284Z,17.40
2019-05-13T12:01:33.718Z,17.30
2019-05-13T12:04:03.077Z,17.30
2019-05-13T12:06:33.790Z,17.40
2019-05-13T12:09:03.332Z,17.40
2019-05-13T12:11:33.380Z,17.40
2019-05-13T12:14:02.687Z,17.50
2019-05-13T12:16:34.937Z,17.50
2019-05-13T12:19:03.546Z,17.50
2019-05-13T12:21:33.054Z,17.80
2019-05-13T12:24:10.208Z,17.80
2019-05-13T12:26:33.455Z,17.90
2019-05-13T12:29:02.889Z,17.80
2019-05-13T12:31:33.635Z,17.50
2019-05-13T12:34:03.614Z,17.20
2019-05-13T12:36:33.145Z,17.00
2019-05-13T12:39:02.182Z,17.10
2019-05-13T12:41:32.982Z,16.60
2019-05-13T12:44:01.975Z,16.70
2019-05-13T12:46:31.435Z,16.60
2019-05-13T12:49:03.241Z,16.60
2019-05-13T12:51:32.513Z,16.40
2019-05-13T12:54:03.777Z,16.40
2019-05-13T12:56:33.514Z,16.40
2019-05-13T12:59:03.294Z,16.60
2019-05-13T13:01:32.541Z,16.60
2019-05-13T13:04:02.350Z,16.60
2019-05-13T13:06:39.643Z,16.50
2019-05-13T13:09:02.006Z,16.30
2019-05-13T13:11:32.298Z,16.30
2019-05-13T13:14:05.676Z,16.30
2019-05-13T13:16:35.354Z,16.50
2019-05-13T13:19:03.201Z,16.60
2019-05-13T13:21:34.337Z,16.70
2019-05-13T13:24:04.621Z,16.80
2019-05-13T13:26:34.212Z,16.70
2019-05-13T13:29:03.168Z,16.70
2019-05-13T13:31:33.605Z,16.50
2019-05-13T13:34:11.871Z,16.40
2019-05-13T13:36:33.820Z,16.30
2019-05-13T13:39:03.893Z,16.30
2019-05-13T13:41:33.076Z,16.30
2019-05-13T13:44:05.434Z,16.40
2019-05-13T13:46:42.443Z,16.60
2019-05-13T13:49:03.957Z,16.80
2019-05-13T13:54:03.791Z,17.10
2019-05-13T13:56:32.876Z,17.10
2019-05-13T13:59:04.495Z,17.20
2019-05-13T14:01:33.911Z,17.10
2019-05-13T14:04:04.020Z,17.00
2019-05-13T14:06:25.462Z,20.90
2019-05-13T14:07:09.043Z,17.00
2019-05-13T14:07:22.785Z,16.80
2019-05-13T14:09:05.947Z,16.40
2019-05-13T14:11:34.880Z,16.40
2019-05-13T14:14:04.452Z,16.30
2019-05-13T14:16:35.221Z,16.40
2019-05-13T14:19:04.407Z,16.50
2019-05-13T14:21:33.264Z,16.60
2019-05-13T14:24:02.795Z,16.70
2019-05-13T14:26:33.152Z,16.90
2019-05-13T14:29:02.902Z,16.80
2019-05-13T14:31:32.466Z,16.90
2019-05-13T14:34:03.662Z,16.80
2019-05-13T14:36:32.486Z,16.80
2019-05-13T14:39:02.818Z,16.70
2019-05-13T14:41:32.305Z,16.60
2019-05-13T14:44:03.733Z,16.50
2019-05-13T14:46:46.765Z,16.50
2019-05-13T14:49:02.941Z,16.40
2019-05-13T14:51:32.461Z,16.30
2019-05-13T14:54:02.757Z,16.40
2019-05-13T14:56:32.470Z,16.30
2019-05-13T14:59:02.625Z,16.40
2019-05-13T15:01:31.998Z,16.40
2019-05-13T15:04:02.815Z,16.40
2019-05-13T15:06:32.693Z,16.30
2019-05-13T15:09:02.101Z,16.10
2019-05-13T15:11:32.443Z,16.00
2019-05-13T15:14:08.135Z,15.90
2019-05-13T15:16:37.225Z,15.90
2019-05-13T15:19:06.587Z,15.70
2019-05-13T15:21:35.835Z,15.80
2019-05-13T15:24:04.862Z,15.90
2019-05-13T15:26:33.853Z,16.00
2019-05-13T15:29:05.079Z,16.20
2019-05-13T15:31:33.963Z,16.20
2019-05-13T15:34:02.887Z,16.30
2019-05-13T15:36:32.156Z,16.20
2019-05-13T15:39:01.558Z,16.20
2019-05-13T15:41:30.654Z,16.10
2019-05-13T15:44:03.209Z,16.00
2019-05-13T15:46:31.985Z,16.00
2019-05-13T15:49:01.654Z,16.10
2019-05-13T15:51:31.552Z,16.20
2019-05-13T15:54:02.322Z,16.30
2019-05-13T15:56:31.662Z,16.40
2019-05-13T15:59:01.913Z,16.40
2019-05-13T16:01:31.054Z,16.40
2019-05-13T16:04:02.463Z,16.30
2019-05-13T16:06:32.134Z,16.20
2019-05-13T16:09:02.775Z,16.10
2019-05-13T16:11:32.736Z,15.90
2019-05-13T16:14:02.212Z,16.00
2019-05-13T16:16:32.436Z,16.00
2019-05-13T16:19:02.043Z,16.10
2019-05-13T16:21:31.913Z,16.10
2019-05-13T16:24:02.681Z,16.20
2019-05-13T16:26:31.991Z,16.10
2019-05-13T16:29:03.085Z,16.20
2019-05-13T16:31:31.988Z,16.30
2019-05-13T16:34:01.540Z,16.30
2019-05-13T16:36:31.421Z,16.30
2019-05-13T16:39:05.582Z,16.30
2019-05-13T16:41:35.445Z,16.30
2019-05-13T16:44:04.458Z,16.30
2019-05-13T16:46:33.440Z,16.30
2019-05-13T16:49:02.642Z,16.30
2019-05-13T16:51:31.799Z,16.10
2019-05-13T16:54:00.873Z,16.10
2019-05-13T16:56:33.228Z,16.10
2019-05-13T16:59:01.571Z,16.10
2019-05-13T17:01:30.909Z,16.10
2019-05-13T17:04:01.824Z,16.10
2019-05-13T17:06:32.299Z,16.10
2019-05-13T17:09:02.015Z,16.20
2019-05-13T17:11:32.171Z,16.10
2019-05-13T17:14:02.358Z,16.10
2019-05-13T17:16:31.888Z,15.90
2019-05-13T17:19:01.405Z,15.90
2019-05-13T17:21:31.651Z,15.80
2019-05-13T17:24:01.528Z,15.70
2019-05-13T17:26:32.725Z,15.70
2019-05-13T17:29:02.013Z,15.70
2019-05-13T17:31:32.538Z,15.70
2019-05-13T17:34:01.735Z,15.70
2019-05-13T17:36:32.549Z,15.70
2019-05-13T17:39:01.907Z,15.60
2019-05-13T17:41:32.079Z,15.50
2019-05-13T17:44:02.400Z,15.60
2019-05-13T17:46:32.662Z,15.50
2019-05-13T17:49:01.730Z,15.40
2019-05-13T17:51:31.150Z,15.40
2019-05-13T17:54:01.404Z,15.40
2019-05-13T17:56:32.328Z,15.30
2019-05-13T17:59:01.716Z,15.40
2019-05-13T18:01:31.734Z,15.30
2019-05-13T18:04:02.438Z,15.30
2019-05-13T18:06:31.485Z,15.20
2019-05-13T18:09:01.255Z,15.10
2019-05-13T18:11:30.682Z,15.10
2019-05-13T18:14:01.244Z,15.00
2019-05-13T18:16:32.411Z,15.00
2019-05-13T18:19:01.519Z,14.90
2019-05-13T18:21:31.867Z,14.90
2019-05-13T18:24:01.347Z,14.90
2019-05-13T18:26:31.997Z,14.80
2019-05-13T18:29:01.955Z,14.70
2019-05-13T18:31:31.225Z,14.70
2019-05-13T18:34:01.599Z,14.60
2019-05-13T18:36:31.818Z,14.60
2019-05-13T18:39:01.645Z,14.50
2019-05-13T18:41:31.681Z,14.50
2019-05-13T18:44:01.300Z,14.40
2019-05-13T18:46:32.218Z,14.30
2019-05-13T18:49:02.162Z,14.20
2019-05-13T18:51:31.675Z,14.20
2019-05-13T18:54:01.262Z,14.10
2019-05-13T18:56:32.285Z,14.00
2019-05-13T18:59:01.988Z,14.00
2019-05-13T19:01:32.079Z,13.80
2019-05-13T19:04:01.912Z,13.80
2019-05-13T19:06:31.686Z,13.70
2019-05-13T19:09:02.238Z,13.60
2019-05-13T19:11:31.786Z,13.60
2019-05-13T19:14:00.835Z,13.60
2019-05-13T19:16:31.780Z,13.60
2019-05-13T19:19:11.604Z,13.60
2019-05-13T19:21:31.501Z,13.60
2019-05-13T19:24:02.029Z,13.50
2019-05-13T19:26:31.509Z,13.50
2019-05-13T19:29:02.074Z,13.40
2019-05-13T19:31:32.459Z,13.40
2019-05-13T19:34:01.629Z,13.30
2019-05-13T19:36:30.877Z,13.20
2019-05-13T19:39:01.816Z,13.10
2019-05-13T19:41:31.483Z,12.90
2019-05-13T19:44:01.577Z,12.80
2019-05-13T19:46:31.465Z,12.70
2019-05-13T19:49:01.575Z,12.40
2019-05-13T19:51:32.268Z,12.30
2019-05-13T19:54:01.444Z,12.20
2019-05-13T19:56:31.920Z,12.10
2019-05-13T19:59:01.609Z,11.90
2019-05-13T20:01:32.199Z,11.60
2019-05-13T20:04:02.334Z,11.60
2019-05-13T20:06:32.067Z,11.50
2019-05-13T20:09:01.636Z,11.40
2019-05-13T20:11:30.729Z,11.40
2019-05-13T20:14:01.407Z,11.30
2019-05-13T20:16:32.133Z,11.40
2019-05-13T20:19:01.462Z,11.20
2019-05-13T20:21:32.019Z,11.10
2019-05-13T20:24:01.520Z,10.90
2019-05-13T20:26:32.263Z,10.70
2019-05-13T20:29:01.717Z,10.50
2019-05-13T20:31:32.199Z,10.50
2019-05-13T20:34:01.820Z,10.40
2019-05-13T20:36:31.547Z,10.30
2019-05-13T20:39:02.101Z,10.40
2019-05-13T20:41:31.771Z,10.30
2019-05-13T20:44:01.472Z,10.20
2019-05-13T20:46:32.697Z,10.10
2019-05-13T20:49:01.304Z,10.00
2019-05-13T20:51:31.373Z,10.00
2019-05-13T20:54:02.393Z,10.00
2019-05-13T20:56:31.827Z,9.70
2019-05-13T20:59:00.833Z,9.60
2019-05-13T21:01:29.668Z,9.70
2019-05-13T21:03:58.919Z,9.60
2019-05-13T21:06:28.112Z,9.60
2019-05-13T21:08:57.309Z,9.60
2019-05-13T21:11:26.150Z,9.60
2019-05-13T21:13:55.073Z,9.50
2019-05-13T21:16:24.080Z,9.50
2019-05-13T21:18:53.050Z,9.30
2019-05-13T21:21:22.878Z,9.30
2019-05-13T21:23:52.348Z,9.20
2019-05-13T21:26:22.514Z,9.10
2019-05-13T21:28:52.255Z,9.00
2019-05-13T21:31:21.548Z,9.00
2019-05-13T21:33:51.402Z,8.90
2019-05-13T21:36:21.595Z,8.90
2019-05-13T21:38:50.869Z,8.90
2019-05-13T21:41:21.216Z,8.80
2019-05-13T21:43:52.053Z,8.70
2019-05-13T21:46:21.352Z,8.60
2019-05-13T21:48:52.035Z,8.80
2019-05-13T21:51:22.242Z,8.50
2019-05-13T21:53:51.994Z,8.40
2019-05-13T21:56:23.141Z,8.50
2019-05-13T21:58:52.169Z,8.40
2019-05-13T22:01:23.359Z,8.30
2019-05-13T22:03:52.123Z,8.30
2019-05-13T22:06:21.816Z,8.20
2019-05-13T22:08:51.781Z,8.10
2019-05-13T22:11:22.215Z,8.20
2019-05-13T22:13:51.549Z,8.10
2019-05-13T22:16:21.447Z,8.00
2019-05-13T22:18:52.377Z,8.10
2019-05-13T22:21:21.350Z,8.10
2019-05-13T22:23:51.764Z,8.00
2019-05-13T22:26:22.220Z,8.00
2019-05-13T22:28:51.358Z,7.90
2019-05-13T22:31:22.229Z,8.00
2019-05-13T22:33:51.869Z,7.90
2019-05-13T22:36:21.443Z,7.60
2019-05-13T22:38:51.702Z,7.50
2019-05-13T22:41:22.265Z,7.50
2019-05-13T22:43:58.276Z,7.30
2019-05-13T22:46:22.565Z,7.30
2019-05-13T22:48:51.518Z,7.20
2019-05-13T22:51:21.397Z,7.30
2019-05-13T22:53:50.673Z,7.20
2019-05-13T22:56:21.860Z,7.20
2019-05-13T22:58:51.667Z,7.00
2019-05-13T23:01:21.820Z,7.10
2019-05-13T23:03:51.472Z,7.00
2019-05-13T23:06:21.621Z,7.10
2019-05-13T23:08:50.758Z,7.10
2019-05-13T23:11:21.780Z,7.10
2019-05-13T23:13:51.317Z,7.10
2019-05-13T23:16:22.260Z,7.00
2019-05-13T23:18:51.416Z,6.90
2019-05-13T23:21:20.657Z,7.10
2019-05-13T23:23:51.489Z,7.00
2019-05-13T23:26:21.073Z,6.90
2019-05-13T23:28:52.207Z,6.80
2019-05-13T23:31:20.989Z,6.80
2019-05-13T23:33:49.840Z,6.70
2019-05-13T23:36:21.001Z,6.70
2019-05-13T23:38:51.563Z,6.70
2019-05-13T23:41:21.788Z,6.80
2019-05-13T23:43:50.716Z,6.80
2019-05-13T23:46:22.083Z,6.80
2019-05-13T23:48:52.014Z,6.80
2019-05-13T23:51:21.620Z,6.90
2019-05-13T23:53:51.020Z,6.90
2019-05-13T23:56:21.803Z,7.00
2019-05-13T23:58:51.881Z,7.10
